• Join FlightAware (Why Join?)
  • Login
  • US Flag 
06:15AM EDT


 

Airport Tracker/Info


-or-


 

Live Flight TrackerFlight Track Log ✈ N830QS ✈ 18-Aug-2013 ✈ KSNA - KCCR

Flight Track Log - Related Links

Times and Time Zones

All times are in EDT time to prevent confusion due to time zone crossing. See the N830QS flight status page for this flight to view local times or setup timezone preferences in your user account.

Time Position Orientation Groundspeed Altitude Reporting Facility
EDT Latitude Longitude Course Direction KTS MPH feet Rate Location/Type
08:50PM 33.6392 -117.8922 323° Northwest 174 200 2,100  Level Los Angeles Center
08:51PM 33.5850 -117.9081 194° South 193 222 3,600 1,620 Climbing Los Angeles Center
08:52PM 33.5369 -117.9508 217° Southwest 211 243 5,500 1,800 Climbing Los Angeles Center
08:53PM 33.4842 -118.0003 218° Southwest 225 259 7,400 2,040 Climbing Los Angeles Center
08:54PM 33.4233 -118.0625 220° Southwest 257 296 9,800 2,040 Climbing Los Angeles Center
08:55PM 34.0325 -118.1931 323° Northwest  Level Estimated
08:55PM 33.3736 -118.1697 241° Southwest 326 375 11,700  Level Los Angeles Center
08:56PM 33.3736 -118.2864 270° West 345 397 13,300 1,740 Climbing Los Angeles Center
08:57PM 33.4033 -118.3967 288° West 360 414 15,400 1,500 Climbing Los Angeles Center
08:58PM 33.5031 -118.4231 348° North 376 433 16,500 1,200 Climbing Los Angeles Center
08:59PM 33.6094 -118.4253 359° North 380 437 18,000 1,500 Climbing Los Angeles Center
09:00PM 33.7167 -118.4297 358° North 376 433 19,700 1,560 Climbing Los Angeles Center
09:01PM 33.8314 -118.4319 359° North 395 455 21,300 1,500 Climbing Los Angeles Center
09:02PM 33.9428 -118.4392 357° North 398 458 22,800 1,200 Climbing Los Angeles Center
09:03PM 34.0644 -118.4978 338° Northwest 428 493 23,900 1,200 Climbing Los Angeles Center
09:04PM 34.1558 -118.5417 338° Northwest 407 468 25,400 960 Climbing Los Angeles Center
09:05PM 34.2844 -118.6053 338° Northwest 417 480 26,000 300 Climbing Los Angeles Center
09:06PM 34.4014 -118.6611 339° North 445 512 26,100 720 Climbing Los Angeles Center
09:07PM 34.5147 -118.7172 338° Northwest 443 510 27,500 1,200 Climbing Los Angeles Center
09:08PM 34.6264 -118.7739 337° Northwest 437 503 28,600 1,020 Climbing Los Angeles Center
09:09PM 34.7406 -118.8306 338° Northwest 444 511 29,700 660 Climbing Los Angeles Center
09:10PM 34.8681 -118.9247 329° Northwest 461 531 30,000 120 Climbing Los Angeles Center
09:11PM 34.9572 -119.0125 321° Northwest 454 522 30,000  Level Los Angeles Center
09:12PM 35.0569 -119.1086 322° Northwest 460 529 30,000  Level Los Angeles Center
09:13PM 35.1583 -119.2078 321° Northwest 468 539 30,000  Level Los Angeles Center
09:14PM 35.2806 -119.3256 322° Northwest 467 537 30,000  Level Los Angeles Center
09:15PM 35.3806 -119.4256 321° Northwest 468 539 30,000  Level Los Angeles Center
09:16PM 35.4828 -119.5256 321° Northwest 469 540 30,000  Level Los Angeles Center
09:17PM 35.5861 -119.6303 321° Northwest 478 550 30,000  Level Los Angeles Center
09:18PM 35.6881 -119.7317 321° Northwest 477 549 30,000  Level Los Angeles Center
09:19PM 35.8114 -119.8561 321° Northwest 480 552 30,000  Level Los Angeles Center
09:21PM 35.9131 -119.9597 320° Northwest 478 550 30,000  Level Los Angeles Center
09:22PM 36.0164 -120.0642 321° Northwest 482 555 30,000  Level Los Angeles Center
09:23PM 36.1197 -120.1692 321° Northwest 484 557 30,000  Level Los Angeles Center
09:24PM 36.2236 -120.2750 321° Northwest 485 558 30,000  Level Los Angeles Center
09:25PM 36.3669 -120.4197 321° Northwest 484 557 30,000 -540 Level Oakland Center
09:26PM 36.4822 -120.5025 330° Northwest 483 556 28,800 -1,440 Descending Oakland Center
09:27PM 36.6014 -120.5603 339° North 462 532 27,100 -1,740 Descending Oakland Center
09:28PM 36.7219 -120.6161 340° North 463 533 25,300 -1,860 Descending Oakland Center
09:29PM 36.8419 -120.6783 337° Northwest 450 518 23,400 -1,680 Descending Oakland Center
09:30PM 36.9511 -120.7347 338° Northwest 427 491 21,900 -1,800 Descending Oakland Center
09:31PM 37.0625 -120.7872 339° North 427 491 19,800 -2,160 Descending Oakland Center
09:32PM 37.1833 -120.8333 343° North 391 450 17,700 -2,040 Descending Northern Cal TRACON
09:33PM 37.2667 -120.9000 328° Northwest 401 461 15,900 -1,920 Descending Northern Cal TRACON
09:34PM 37.3667 -120.9833 326° Northwest 386 444 13,900 -1,860 Descending Northern Cal TRACON
09:35PM 37.4508 -121.0714 320° Northwest 373 429 12,000 -960 Descending Oakland Center
09:36PM 37.5333 -121.1500 323° Northwest 373 429 12,000  Level Northern Cal TRACON
09:37PM 37.6000 -121.2167 322° Northwest 362 417 12,000  Level Northern Cal TRACON
09:38PM 37.6833 -121.3000 322° Northwest 348 400 12,000 -60 Level Northern Cal TRACON
09:39PM 37.7667 -121.3833 322° Northwest 386 444 11,900 -780 Descending Northern Cal TRACON
09:40PM 37.8333 -121.4500 322° Northwest 334 384 10,500 -1,440 Descending Northern Cal TRACON
09:41PM 37.9181 -121.5325 322° Northwest 309 356 8,700 -1,440 Descending Oakland Center
09:42PM 37.9794 -121.5969 320° Northwest 294 338 7,300 -1,140 Descending Oakland Center
09:43PM 38.0086 -121.6800 294° West 273 314 6,400 -1,500 Descending Oakland Center
09:44PM 38.0294 -121.7653 287° West 255 293 4,300 -1,200 Descending Oakland Center
09:45PM 38.0381 -121.8483 278° West 246 283 4,000 -540 Descending Oakland Center
09:46PM 38.0228 -121.9297 257° West 244 281 3,300 -960 Descending Oakland Center
09:47PM 37.9758 -121.9800 220° Southwest 225 259 2,100 -1,080 Descending Oakland Center
09:48PM 37.9625 -122.0317 252° West 186 214 1,100 -780 Descending Oakland Center
09:49PM 37.9789 -122.0628 304° West 150 173 600 -540 Descending Oakland Center
09:51PM 37.9833 -122.0500 North  Level FlightAware Approximate